sensor_id;sensor_type;location;lat;lon;timestamp;pressure;altitude;pressure_sealevel;temperature;humidity
44734;BME280;30462;52.446;-1.930;2023-02-18T00:00:19;100659.793;;;;
44734;BME280;30462;52.446;-1.930;2023-02-18T00:01:19;100657.5469;;;;
44734;BME280;30462;52.446;-1.930;2023-02-18T00:02:18;100658.8477;;;;
44734;BME280;30462;52.446;-1.930;2023-02-18T00:03:18;100658.2891;;;;
44734;BME280;30462;52.446;-1.930;2023-02-18T00:04:18;100655.7578;;;;
44734;BME280;30462;52.446;-1.930;2023-02-18T00:05:18;100657.8008;;;;
44734;BME280;30462;52.446;-1.930;2023-02-18T00:06:20;100653.7773;;;;
44734;BME280;30462;52.446;-1.930;2023-02-18T00:07:18;100648.7813;;;;
44734;BME280;30462;52.446;-1.930;2023-02-18T00:08:18;100647.6914;;;;
44734;BME280;30462;52.446;-1.930;2023-02-18T00:09:17;100654.0156;;;;
44734;BME280;30462;52.446;-1.930;2023-02-18T00:10:18;100658.9805;;;;
44734;BME280;30462;52.446;-1.930;2023-02-18T00:11:18;100656.4766;;;;
44734;BME280;30462;52.446;-1.930;2023-02-18T00:12:18;100650.3828;;;;
44734;BME280;30462;52.446;-1.930;2023-02-18T00:13:18;100651.3867;;;;
44734;BME280;30462;52.446;-1.930;2023-02-18T00:14:18;100649.3867;;;;
44734;BME280;30462;52.446;-1.930;2023-02-18T00:15:18;100643.957;;;;
44734;BME280;30462;52.446;-1.930;2023-02-18T00:16:18;100650.3945;;;;
44734;BME280;30462;52.446;-1.930;2023-02-18T00:17:18;100646.3203;;;;
44734;BME280;30462;52.446;-1.930;2023-02-18T00:18:18;100643.4453;;;;
44734;BME280;30462;52.446;-1.930;2023-02-18T00:19:18;100644.0625;;;;
44734;BME280;30462;52.446;-1.930;2023-02-18T00:20:18;100642.5938;;;;
44734;BME280;30462;52.446;-1.930;2023-02-18T00:21:18;100645.6797;;;;
44734;BME280;30462;52.446;-1.930;2023-02-18T00:22:18;100641.0391;;;;
44734;BME280;30462;52.446;-1.930;2023-02-18T00:23:18;100637.0781;;;;
44734;BME280;30462;52.446;-1.930;2023-02-18T00:24:18;100639.4219;;;;
44734;BME280;30462;52.446;-1.930;2023-02-18T00:25:18;100640.1797;;;;
44734;BME280;30462;52.446;-1.930;2023-02-18T00:26:18;100641.1133;;;;
44734;BME280;30462;52.446;-1.930;2023-02-18T00:27:19;100634.4766;;;;
44734;BME280;30462;52.446;-1.930;2023-02-18T00:28:17;100631.6953;;;;
44734;BME280;30462;52.446;-1.930;2023-02-18T00:29:18;100633.6016;;;;
44734;BME280;30462;52.446;-1.930;2023-02-18T00:30:18;100623.4023;;;;
44734;BME280;30462;52.446;-1.930;2023-02-18T00:31:19;100622.5234;;;;
44734;BME280;30462;52.446;-1.930;2023-02-18T00:32:18;100613.9219;;;;
44734;BME280;30462;52.446;-1.930;2023-02-18T00:33:18;100609.0039;;;;
44734;BME280;30462;52.446;-1.930;2023-02-18T00:34:18;100608.1445;;;;
44734;BME280;30462;52.446;-1.930;2023-02-18T00:35:18;100609.418;;;;
44734;BME280;30462;52.446;-1.930;2023-02-18T00:36:18;100609.7656;;;;
44734;BME280;30462;52.446;-1.930;2023-02-18T00:37:18;100621.0508;;;;
44734;BME280;30462;52.446;-1.930;2023-02-18T00:38:18;100617.0313;;;;
44734;BME280;30462;52.446;-1.930;2023-02-18T00:39:18;100609.918;;;;
44734;BME280;30462;52.446;-1.930;2023-02-18T00:40:18;100616.8438;;;;
44734;BME280;30462;52.446;-1.930;2023-02-18T00:41:19;100613.5117;;;;
44734;BME280;30462;52.446;-1.930;2023-02-18T00:42:18;100615.543;;;;
44734;BME280;30462;52.446;-1.930;2023-02-18T00:43:18;100604.7188;;;;
44734;BME280;30462;52.446;-1.930;2023-02-18T00:44:18;100607.582;;;;
44734;BME280;30462;52.446;-1.930;2023-02-18T00:45:18;100602.5742;;;;
44734;BME280;30462;52.446;-1.930;2023-02-18T00:46:18;100603.8359;;;;
44734;BME280;30462;52.446;-1.930;2023-02-18T00:47:18;100599.2891;;;;
44734;BME280;30462;52.446;-1.930;2023-02-18T00:48:18;100589.1211;;;;
44734;BME280;30462;52.446;-1.930;2023-02-18T00:49:18;100594.457;;;;
44734;BME280;30462;52.446;-1.930;2023-02-18T00:50:18;100591.5156;;;;
44734;BME280;30462;52.446;-1.930;2023-02-18T00:51:18;100594.9414;;;;
44734;BME280;30462;52.446;-1.930;2023-02-18T00:52:18;100581.7773;;;;
44734;BME280;30462;52.446;-1.930;2023-02-18T00:53:18;100588.1563;;;;
44734;BME280;30462;52.446;-1.930;2023-02-18T00:54:18;100583.3477;;;;
44734;BME280;30462;52.446;-1.930;2023-02-18T00:55:18;100581.2734;;;;
44734;BME280;30462;52.446;-1.930;2023-02-18T00:56:18;100582.3398;;;;
44734;BME280;30462;52.446;-1.930;2023-02-18T00:57:18;100577.0195;;;;
44734;BME280;30462;52.446;-1.930;2023-02-18T00:58:18;100573.0664;;;;
44734;BME280;30462;52.446;-1.930;2023-02-18T00:59:18;100572.9648;;;;
44734;BME280;30462;52.446;-1.930;2023-02-18T01:00:18;100572.7188;;;;
44734;BME280;30462;52.446;-1.930;2023-02-18T01:01:18;100580.1016;;;;
44734;BME280;30462;52.446;-1.930;2023-02-18T01:02:17;100582.0664;;;;
44734;BME280;30462;52.446;-1.930;2023-02-18T01:03:18;100576.5664;;;;
44734;BME280;30462;52.446;-1.930;2023-02-18T01:04:18;100564.3086;;;;
44734;BME280;30462;52.446;-1.930;2023-02-18T01:05:18;100572.3555;;;;
44734;BME280;30462;52.446;-1.930;2023-02-18T01:06:17;100571.4805;;;;
44734;BME280;30462;52.446;-1.930;2023-02-18T01:07:17;100575.918;;;;
44734;BME280;30462;52.446;-1.930;2023-02-18T01:08:19;100566.668;;;;
44734;BME280;30462;52.446;-1.930;2023-02-18T01:09:17;100570.3789;;;;
44734;BME280;30462;52.446;-1.930;2023-02-18T01:10:18;100563.3711;;;;
44734;BME280;30462;52.446;-1.930;2023-02-18T01:11:18;100554.4805;;;;
44734;BME280;30462;52.446;-1.930;2023-02-18T01:12:18;100544.0703;;;;
44734;BME280;30462;52.446;-1.930;2023-02-18T01:13:17;100532.875;;;;
44734;BME280;30462;52.446;-1.930;2023-02-18T01:14:17;100533.582;;;;
44734;BME280;30462;52.446;-1.930;2023-02-18T01:15:19;100523.7031;;;;
44734;BME280;30462;52.446;-1.930;2023-02-18T01:16:18;100512.6406;;;;
44734;BME280;30462;52.446;-1.930;2023-02-18T01:17:18;100530.5742;;;;
44734;BME280;30462;52.446;-1.930;2023-02-18T01:18:19;100536.4609;;;;
44734;BME280;30462;52.446;-1.930;2023-02-18T01:19:17;100533.0703;;;;
44734;BME280;30462;52.446;-1.930;2023-02-18T01:20:18;100537.6953;;;;
44734;BME280;30462;52.446;-1.930;2023-02-18T01:21:18;100528.9727;;;;
44734;BME280;30462;52.446;-1.930;2023-02-18T01:22:18;100531.9063;;;;
44734;BME280;30462;52.446;-1.930;2023-02-18T01:23:19;100535.1758;;;;
44734;BME280;30462;52.446;-1.930;2023-02-18T01:24:18;100538.1914;;;;
44734;BME280;30462;52.446;-1.930;2023-02-18T01:25:18;100539.7188;;;;
44734;BME280;30462;52.446;-1.930;2023-02-18T01:26:17;100537.043;;;;
44734;BME280;30462;52.446;-1.930;2023-02-18T01:27:17;100533.9844;;;;
44734;BME280;30462;52.446;-1.930;2023-02-18T01:28:19;100539.7266;;;;
44734;BME280;30462;52.446;-1.930;2023-02-18T01:29:18;100533.207;;;;
44734;BME280;30462;52.446;-1.930;2023-02-18T01:30:17;100536.0586;;;;
44734;BME280;30462;52.446;-1.930;2023-02-18T01:31:18;100534.6836;;;;
44734;BME280;30462;52.446;-1.930;2023-02-18T01:32:18;100528.0781;;;;
44734;BME280;30462;52.446;-1.930;2023-02-18T01:33:18;100527.1133;;;;
44734;BME280;30462;52.446;-1.930;2023-02-18T01:34:18;100523.8945;;;;
44734;BME280;30462;52.446;-1.930;2023-02-18T01:35:19;100515.5625;;;;
44734;BME280;30462;52.446;-1.930;2023-02-18T01:36:18;100511.9297;;;;
44734;BME280;30462;52.446;-1.930;2023-02-18T01:37:18;100513.3125;;;;
44734;BME280;30462;52.446;-1.930;2023-02-18T01:38:18;100498.582;;;;
44734;BME280;30462;52.446;-1.930;2023-02-18T01:39:18;100525.3242;;;;
44734;BME280;30462;52.446;-1.930;2023-02-18T01:40:20;100520.2031;;;;
44734;BME280;30462;52.446;-1.930;2023-02-18T01:41:18;100527.4219;;;;
44734;BME280;30462;52.446;-1.930;2023-02-18T01:42:19;100523.5547;;;;
44734;BME280;30462;52.446;-1.930;2023-02-18T01:43:18;100538.0898;;;;
44734;BME280;30462;52.446;-1.930;2023-02-18T01:44:18;100529.582;;;;
44734;BME280;30462;52.446;-1.930;2023-02-18T01:46:19;100533.9531;;;;
44734;BME280;30462;52.446;-1.930;2023-02-18T01:47:18;100529.8516;;;;
44734;BME280;30462;52.446;-1.930;2023-02-18T01:48:20;100522.2422;;;;
44734;BME280;30462;52.446;-1.930;2023-02-18T01:49:20;100523.2266;;;;
44734;BME280;30462;52.446;-1.930;2023-02-18T01:50:18;100524.7266;;;;
44734;BME280;30462;52.446;-1.930;2023-02-18T01:51:19;100520.2266;;;;
44734;BME280;30462;52.446;-1.930;2023-02-18T01:52:18;100536.2461;;;;
44734;BME280;30462;52.446;-1.930;2023-02-18T01:53:19;100546.1484;;;;
44734;BME280;30462;52.446;-1.930;2023-02-18T01:54:20;100552.7852;;;;
44734;BME280;30462;52.446;-1.930;2023-02-18T01:55:18;100550.875;;;;
44734;BME280;30462;52.446;-1.930;2023-02-18T01:56:20;100537.8359;;;;
44734;BME280;30462;52.446;-1.930;2023-02-18T01:57:20;100541.1992;;;;
44734;BME280;30462;52.446;-1.930;2023-02-18T01:58:17;100527.6055;;;;
44734;BME280;30462;52.446;-1.930;2023-02-18T01:59:19;100520.2773;;;;
44734;BME280;30462;52.446;-1.930;2023-02-18T02:00:18;100534.2422;;;;
44734;BME280;30462;52.446;-1.930;2023-02-18T02:01:18;100531.6289;;;;
44734;BME280;30462;52.446;-1.930;2023-02-18T02:02:19;100526.4219;;;;
44734;BME280;30462;52.446;-1.930;2023-02-18T02:03:18;100519.5547;;;;
44734;BME280;30462;52.446;-1.930;2023-02-18T02:04:18;100528.7148;;;;
44734;BME280;30462;52.446;-1.930;2023-02-18T02:05:18;100521.1836;;;;
44734;BME280;30462;52.446;-1.930;2023-02-18T02:06:19;100520.6406;;;;
44734;BME280;30462;52.446;-1.930;2023-02-18T02:07:18;100512.707;;;;
44734;BME280;30462;52.446;-1.930;2023-02-18T02:08:18;100525.0586;;;;
44734;BME280;30462;52.446;-1.930;2023-02-18T02:09:18;100511.9766;;;;
44734;BME280;30462;52.446;-1.930;2023-02-18T02:10:18;100518.1602;;;;
44734;BME280;30462;52.446;-1.930;2023-02-18T02:11:21;100526.0898;;;;
44734;BME280;30462;52.446;-1.930;2023-02-18T02:13:19;100528.5625;;;;
44734;BME280;30462;52.446;-1.930;2023-02-18T02:14:24;100514.75;;;;
44734;BME280;30462;52.446;-1.930;2023-02-18T02:16:23;100508.3164;;;;
44734;BME280;30462;52.446;-1.930;2023-02-18T02:17:21;100514.9297;;;;
44734;BME280;30462;52.446;-1.930;2023-02-18T02:27:20;100508.6211;;;;
44734;BME280;30462;52.446;-1.930;2023-02-18T02:35:21;100482.6055;;;;
44734;BME280;30462;52.446;-1.930;2023-02-18T02:36:22;100478.9805;;;;
44734;BME280;30462;52.446;-1.930;2023-02-18T02:37:20;100475.5391;;;;
44734;BME280;30462;52.446;-1.930;2023-02-18T02:38:22;100480.9258;;;;
44734;BME280;30462;52.446;-1.930;2023-02-18T02:39:19;100481.8828;;;;
44734;BME280;30462;52.446;-1.930;2023-02-18T02:40:23;100481.8828;;;;
44734;BME280;30462;52.446;-1.930;2023-02-18T02:41:20;100481.1523;;;;
44734;BME280;30462;52.446;-1.930;2023-02-18T02:42:19;100468.7695;;;;
44734;BME280;30462;52.446;-1.930;2023-02-18T02:43:19;100467.1055;;;;
44734;BME280;30462;52.446;-1.930;2023-02-18T02:44:23;100460.293;;;;
44734;BME280;30462;52.446;-1.930;2023-02-18T02:45:26;100460.293;;;;
44734;BME280;30462;52.446;-1.930;2023-02-18T02:46:22;100461.6172;;;;
44734;BME280;30462;52.446;-1.930;2023-02-18T02:47:19;100451.2227;;;;
44734;BME280;30462;52.446;-1.930;2023-02-18T02:48:23;100460.5508;;;;
44734;BME280;30462;52.446;-1.930;2023-02-18T02:49:23;100448.5977;;;;
44734;BME280;30462;52.446;-1.930;2023-02-18T02:50:19;100458.6133;;;;
44734;BME280;30462;52.446;-1.930;2023-02-18T02:51:22;100454.7383;;;;
44734;BME280;30462;52.446;-1.930;2023-02-18T02:52:19;100457.5938;;;;
44734;BME280;30462;52.446;-1.930;2023-02-18T02:53:21;100436.793;;;;
44734;BME280;30462;52.446;-1.930;2023-02-18T02:54:18;100445.6172;;;;
44734;BME280;30462;52.446;-1.930;2023-02-18T02:55:18;100455.6172;;;;
44734;BME280;30462;52.446;-1.930;2023-02-18T02:56:19;100444.9297;;;;
44734;BME280;30462;52.446;-1.930;2023-02-18T02:58:18;100447.9414;;;;
44734;BME280;30462;52.446;-1.930;2023-02-18T02:59:21;100433.2773;;;;
44734;BME280;30462;52.446;-1.930;2023-02-18T03:00:19;100446.1055;;;;
44734;BME280;30462;52.446;-1.930;2023-02-18T03:01:20;100437.6133;;;;
44734;BME280;30462;52.446;-1.930;2023-02-18T03:05:23;100445.7266;;;;
44734;BME280;30462;52.446;-1.930;2023-02-18T03:09:23;100456.4141;;;;
44734;BME280;30462;52.446;-1.930;2023-02-18T03:11:18;100452.918;;;;
44734;BME280;30462;52.446;-1.930;2023-02-18T03:12:20;100451.6172;;;;
44734;BME280;30462;52.446;-1.930;2023-02-18T03:14:21;100447.8711;;;;
44734;BME280;30462;52.446;-1.930;2023-02-18T03:15:20;100453.3633;;;;
44734;BME280;30462;52.446;-1.930;2023-02-18T03:16:21;100434.125;;;;
44734;BME280;30462;52.446;-1.930;2023-02-18T03:17:21;100422.6094;;;;
44734;BME280;30462;52.446;-1.930;2023-02-18T03:18:20;100436.4336;;;;
44734;BME280;30462;52.446;-1.930;2023-02-18T03:19:19;100436.9727;;;;
44734;BME280;30462;52.446;-1.930;2023-02-18T03:20:20;100434.8867;;;;
44734;BME280;30462;52.446;-1.930;2023-02-18T03:21:22;100430.9531;;;;
44734;BME280;30462;52.446;-1.930;2023-02-18T03:22:19;100442.2656;;;;
44734;BME280;30462;52.446;-1.930;2023-02-18T03:23:19;100434.0352;;;;
44734;BME280;30462;52.446;-1.930;2023-02-18T03:24:19;100444.7109;;;;
44734;BME280;30462;52.446;-1.930;2023-02-18T03:25:18;100437.2656;;;;
44734;BME280;30462;52.446;-1.930;2023-02-18T03:26:18;100444.6953;;;;
44734;BME280;30462;52.446;-1.930;2023-02-18T03:27:20;100436.9648;;;;
44734;BME280;30462;52.446;-1.930;2023-02-18T03:28:19;100427.0156;;;;
44734;BME280;30462;52.446;-1.930;2023-02-18T03:29:18;100430.7773;;;;
44734;BME280;30462;52.446;-1.930;2023-02-18T03:30:19;100425.2148;;;;
44734;BME280;30462;52.446;-1.930;2023-02-18T03:31:19;100435.3203;;;;
44734;BME280;30462;52.446;-1.930;2023-02-18T03:32:18;100434.6211;;;;
44734;BME280;30462;52.446;-1.930;2023-02-18T03:33:19;100423.8008;;;;
44734;BME280;30462;52.446;-1.930;2023-02-18T03:34:19;100412.3633;;;;
44734;BME280;30462;52.446;-1.930;2023-02-18T03:35:18;100418.5;;;;
44734;BME280;30462;52.446;-1.930;2023-02-18T03:36:19;100416.0234;;;;
44734;BME280;30462;52.446;-1.930;2023-02-18T03:37:18;100421.4609;;;;
44734;BME280;30462;52.446;-1.930;2023-02-18T03:38:19;100413.9688;;;;
44734;BME280;30462;52.446;-1.930;2023-02-18T03:39:19;100413.2813;;;;
44734;BME280;30462;52.446;-1.930;2023-02-18T03:40:18;100419.1758;;;;
44734;BME280;30462;52.446;-1.930;2023-02-18T03:41:18;100410.4219;;;;
44734;BME280;30462;52.446;-1.930;2023-02-18T03:42:18;100430.3047;;;;
44734;BME280;30462;52.446;-1.930;2023-02-18T03:43:18;100411.8789;;;;
44734;BME280;30462;52.446;-1.930;2023-02-18T03:44:18;100414.875;;;;
44734;BME280;30462;52.446;-1.930;2023-02-18T03:45:18;100421.7813;;;;
44734;BME280;30462;52.446;-1.930;2023-02-18T03:46:17;100420.5898;;;;
44734;BME280;30462;52.446;-1.930;2023-02-18T03:47:18;100424.1445;;;;
44734;BME280;30462;52.446;-1.930;2023-02-18T03:48:18;100422.6289;;;;
44734;BME280;30462;52.446;-1.930;2023-02-18T03:49:18;100431.4531;;;;
44734;BME280;30462;52.446;-1.930;2023-02-18T03:50:19;100433.8516;;;;
44734;BME280;30462;52.446;-1.930;2023-02-18T03:51:18;100434.8828;;;;
44734;BME280;30462;52.446;-1.930;2023-02-18T03:52:18;100435.4336;;;;
44734;BME280;30462;52.446;-1.930;2023-02-18T03:53:18;100435.1172;;;;
44734;BME280;30462;52.446;-1.930;2023-02-18T03:54:18;100434.8789;;;;
44734;BME280;30462;52.446;-1.930;2023-02-18T03:55:18;100431.0156;;;;
44734;BME280;30462;52.446;-1.930;2023-02-18T03:56:18;100434.7031;;;;
44734;BME280;30462;52.446;-1.930;2023-02-18T03:57:18;100431.9688;;;;
44734;BME280;30462;52.446;-1.930;2023-02-18T03:58:18;100410.1914;;;;
44734;BME280;30462;52.446;-1.930;2023-02-18T03:59:18;100428.8672;;;;
44734;BME280;30462;52.446;-1.930;2023-02-18T04:00:18;100421.2148;;;;
44734;BME280;30462;52.446;-1.930;2023-02-18T04:01:18;100421.2422;;;;
44734;BME280;30462;52.446;-1.930;2023-02-18T04:02:18;100420.8594;;;;
44734;BME280;30462;52.446;-1.930;2023-02-18T04:03:18;100421.6836;;;;
44734;BME280;30462;52.446;-1.930;2023-02-18T04:04:18;100420.6484;;;;
44734;BME280;30462;52.446;-1.930;2023-02-18T04:05:18;100392.8125;;;;
44734;BME280;30462;52.446;-1.930;2023-02-18T04:06:18;100427.5;;;;
44734;BME280;30462;52.446;-1.930;2023-02-18T04:07:18;100420.9219;;;;
44734;BME280;30462;52.446;-1.930;2023-02-18T04:08:18;100413.2852;;;;
44734;BME280;30462;52.446;-1.930;2023-02-18T04:09:18;100421.6563;;;;
44734;BME280;30462;52.446;-1.930;2023-02-18T04:10:18;100426.8633;;;;
44734;BME280;30462;52.446;-1.930;2023-02-18T04:11:17;100422.3789;;;;
44734;BME280;30462;52.446;-1.930;2023-02-18T04:12:18;100417.6016;;;;
44734;BME280;30462;52.446;-1.930;2023-02-18T04:13:18;100416.2891;;;;
44734;BME280;30462;52.446;-1.930;2023-02-18T04:14:18;100417.082;;;;
44734;BME280;30462;52.446;-1.930;2023-02-18T04:15:18;100428.0977;;;;
44734;BME280;30462;52.446;-1.930;2023-02-18T04:16:18;100417.8516;;;;
44734;BME280;30462;52.446;-1.930;2023-02-18T04:17:18;100425.2539;;;;
44734;BME280;30462;52.446;-1.930;2023-02-18T04:18:18;100423.2852;;;;
44734;BME280;30462;52.446;-1.930;2023-02-18T04:19:18;100413.6992;;;;
44734;BME280;30462;52.446;-1.930;2023-02-18T04:20:18;100417.8164;;;;
44734;BME280;30462;52.446;-1.930;2023-02-18T04:21:18;100413.3867;;;;
44734;BME280;30462;52.446;-1.930;2023-02-18T04:22:18;100419.7227;;;;
44734;BME280;30462;52.446;-1.930;2023-02-18T04:23:18;100427.2188;;;;
44734;BME280;30462;52.446;-1.930;2023-02-18T04:24:18;100429.0195;;;;
44734;BME280;30462;52.446;-1.930;2023-02-18T04:25:18;100428.2617;;;;
44734;BME280;30462;52.446;-1.930;2023-02-18T04:26:18;100433.8047;;;;
44734;BME280;30462;52.446;-1.930;2023-02-18T04:27:18;100432.7656;;;;
44734;BME280;30462;52.446;-1.930;2023-02-18T04:28:18;100439.918;;;;
44734;BME280;30462;52.446;-1.930;2023-02-18T04:29:18;100435.8828;;;;
44734;BME280;30462;52.446;-1.930;2023-02-18T04:30:18;100428.1875;;;;
44734;BME280;30462;52.446;-1.930;2023-02-18T04:31:18;100435.2617;;;;
44734;BME280;30462;52.446;-1.930;2023-02-18T04:32:18;100434.9336;;;;
44734;BME280;30462;52.446;-1.930;2023-02-18T04:33:18;100442.2656;;;;
44734;BME280;30462;52.446;-1.930;2023-02-18T04:34:18;100441.4414;;;;
44734;BME280;30462;52.446;-1.930;2023-02-18T04:35:18;100435.7852;;;;
44734;BME280;30462;52.446;-1.930;2023-02-18T04:36:18;100434.4297;;;;
44734;BME280;30462;52.446;-1.930;2023-02-18T04:37:18;100436.5195;;;;
44734;BME280;30462;52.446;-1.930;2023-02-18T04:38:18;100437.7617;;;;
44734;BME280;30462;52.446;-1.930;2023-02-18T04:39:18;100429.5586;;;;
44734;BME280;30462;52.446;-1.930;2023-02-18T04:40:18;100426.3164;;;;
44734;BME280;30462;52.446;-1.930;2023-02-18T04:41:18;100424.5898;;;;
44734;BME280;30462;52.446;-1.930;2023-02-18T04:42:18;100431.0117;;;;
44734;BME280;30462;52.446;-1.930;2023-02-18T04:43:18;100437.1797;;;;
44734;BME280;30462;52.446;-1.930;2023-02-18T04:44:18;100431.2305;;;;
44734;BME280;30462;52.446;-1.930;2023-02-18T04:45:17;100438.0195;;;;
44734;BME280;30462;52.446;-1.930;2023-02-18T04:46:17;100430.3828;;;;
44734;BME280;30462;52.446;-1.930;2023-02-18T04:47:19;100428.1367;;;;
44734;BME280;30462;52.446;-1.930;2023-02-18T04:48:18;100436.4766;;;;
44734;BME280;30462;52.446;-1.930;2023-02-18T04:49:17;100438.8125;;;;
44734;BME280;30462;52.446;-1.930;2023-02-18T04:50:18;100426.1797;;;;
44734;BME280;30462;52.446;-1.930;2023-02-18T04:51:18;100421.9414;;;;
44734;BME280;30462;52.446;-1.930;2023-02-18T04:52:17;100425.8125;;;;
44734;BME280;30462;52.446;-1.930;2023-02-18T04:53:18;100427.0703;;;;
44734;BME280;30462;52.446;-1.930;2023-02-18T04:54:18;100425.1602;;;;
44734;BME280;30462;52.446;-1.930;2023-02-18T04:55:18;100417.6953;;;;
44734;BME280;30462;52.446;-1.930;2023-02-18T04:56:18;100417.8008;;;;
44734;BME280;30462;52.446;-1.930;2023-02-18T04:57:18;100422.5117;;;;
44734;BME280;30462;52.446;-1.930;2023-02-18T04:58:18;100429.5078;;;;
44734;BME280;30462;52.446;-1.930;2023-02-18T04:59:18;100429.2305;;;;
44734;BME280;30462;52.446;-1.930;2023-02-18T05:00:18;100427.9883;;;;
44734;BME280;30462;52.446;-1.930;2023-02-18T05:01:18;100423.2539;;;;
44734;BME280;30462;52.446;-1.930;2023-02-18T05:02:18;100430.5313;;;;
44734;BME280;30462;52.446;-1.930;2023-02-18T05:03:18;100435.6367;;;;
44734;BME280;30462;52.446;-1.930;2023-02-18T05:04:18;100436.8711;;;;
44734;BME280;30462;52.446;-1.930;2023-02-18T05:05:17;100440.9375;;;;
44734;BME280;30462;52.446;-1.930;2023-02-18T05:06:17;100434.832;;;;
44734;BME280;30462;52.446;-1.930;2023-02-18T05:07:18;100429.2461;;;;
44734;BME280;30462;52.446;-1.930;2023-02-18T05:08:18;100423.6328;;;;
44734;BME280;30462;52.446;-1.930;2023-02-18T05:09:18;100440.5234;;;;
44734;BME280;30462;52.446;-1.930;2023-02-18T05:10:18;100419.1875;;;;
44734;BME280;30462;52.446;-1.930;2023-02-18T05:11:18;100434.3828;;;;
44734;BME280;30462;52.446;-1.930;2023-02-18T05:12:18;100418.625;;;;
44734;BME280;30462;52.446;-1.930;2023-02-18T05:13:18;100428.5039;;;;
44734;BME280;30462;52.446;-1.930;2023-02-18T05:14:18;100427.6328;;;;
44734;BME280;30462;52.446;-1.930;2023-02-18T05:15:18;100423.8672;;;;
44734;BME280;30462;52.446;-1.930;2023-02-18T05:16:18;100435.25;;;;
44734;BME280;30462;52.446;-1.930;2023-02-18T05:17:18;100438.9844;;;;
44734;BME280;30462;52.446;-1.930;2023-02-18T05:18:18;100431.1367;;;;
44734;BME280;30462;52.446;-1.930;2023-02-18T05:19:18;100439.875;;;;
44734;BME280;30462;52.446;-1.930;2023-02-18T05:20:18;100438.4258;;;;
44734;BME280;30462;52.446;-1.930;2023-02-18T05:21:18;100443.2773;;;;
44734;BME280;30462;52.446;-1.930;2023-02-18T05:22:18;100446.5742;;;;
44734;BME280;30462;52.446;-1.930;2023-02-18T05:23:18;100448.3047;;;;
44734;BME280;30462;52.446;-1.930;2023-02-18T05:24:18;100453.3086;;;;
44734;BME280;30462;52.446;-1.930;2023-02-18T05:25:18;100450.375;;;;
44734;BME280;30462;52.446;-1.930;2023-02-18T05:26:18;100447.7891;;;;
44734;BME280;30462;52.446;-1.930;2023-02-18T05:27:18;100451.7383;;;;
44734;BME280;30462;52.446;-1.930;2023-02-18T05:28:18;100443.8477;;;;
44734;BME280;30462;52.446;-1.930;2023-02-18T05:29:18;100442.2852;;;;
44734;BME280;30462;52.446;-1.930;2023-02-18T05:30:18;100443.1563;;;;
44734;BME280;30462;52.446;-1.930;2023-02-18T05:31:18;100451.7305;;;;
44734;BME280;30462;52.446;-1.930;2023-02-18T05:32:18;100446.5938;;;;
44734;BME280;30462;52.446;-1.930;2023-02-18T05:33:18;100442.6016;;;;
44734;BME280;30462;52.446;-1.930;2023-02-18T05:34:18;100443.2773;;;;
44734;BME280;30462;52.446;-1.930;2023-02-18T05:35:18;100429.1758;;;;
44734;BME280;30462;52.446;-1.930;2023-02-18T05:36:17;100443.6289;;;;
44734;BME280;30462;52.446;-1.930;2023-02-18T05:37:18;100442.8984;;;;
44734;BME280;30462;52.446;-1.930;2023-02-18T05:38:18;100440.2539;;;;
44734;BME280;30462;52.446;-1.930;2023-02-18T05:39:18;100448.6914;;;;
44734;BME280;30462;52.446;-1.930;2023-02-18T05:40:18;100442.0508;;;;
44734;BME280;30462;52.446;-1.930;2023-02-18T05:41:18;100439.4844;;;;
44734;BME280;30462;52.446;-1.930;2023-02-18T05:42:18;100440.0469;;;;
44734;BME280;30462;52.446;-1.930;2023-02-18T05:43:18;100431.5;;;;
44734;BME280;30462;52.446;-1.930;2023-02-18T05:44:18;100424.5313;;;;
44734;BME280;30462;52.446;-1.930;2023-02-18T05:45:18;100421.457;;;;
44734;BME280;30462;52.446;-1.930;2023-02-18T05:46:18;100416.4414;;;;
44734;BME280;30462;52.446;-1.930;2023-02-18T05:47:18;100408.5625;;;;
44734;BME280;30462;52.446;-1.930;2023-02-18T05:48:18;100416.6836;;;;
44734;BME280;30462;52.446;-1.930;2023-02-18T05:49:18;100416.5234;;;;
44734;BME280;30462;52.446;-1.930;2023-02-18T05:50:18;100425.2852;;;;
44734;BME280;30462;52.446;-1.930;2023-02-18T05:51:18;100427.0586;;;;
44734;BME280;30462;52.446;-1.930;2023-02-18T05:52:18;100428.125;;;;
44734;BME280;30462;52.446;-1.930;2023-02-18T05:53:18;100429.2813;;;;
44734;BME280;30462;52.446;-1.930;2023-02-18T05:54:18;100435.6563;;;;
44734;BME280;30462;52.446;-1.930;2023-02-18T05:55:18;100430.9414;;;;
44734;BME280;30462;52.446;-1.930;2023-02-18T05:56:18;100433.625;;;;
44734;BME280;30462;52.446;-1.930;2023-02-18T05:57:18;100436.4219;;;;
44734;BME280;30462;52.446;-1.930;2023-02-18T05:58:18;100437.1797;;;;
44734;BME280;30462;52.446;-1.930;2023-02-18T05:59:18;100430.4609;;;;
44734;BME280;30462;52.446;-1.930;2023-02-18T06:00:18;100427.1289;;;;
44734;BME280;30462;52.446;-1.930;2023-02-18T06:01:18;100426.9102;;;;
44734;BME280;30462;52.446;-1.930;2023-02-18T06:02:18;100409.1055;;;;
44734;BME280;30462;52.446;-1.930;2023-02-18T06:03:18;100420.9414;;;;
44734;BME280;30462;52.446;-1.930;2023-02-18T06:04:18;100419.7617;;;;
44734;BME280;30462;52.446;-1.930;2023-02-18T06:05:18;100417.5273;;;;
44734;BME280;30462;52.446;-1.930;2023-02-18T06:06:18;100414.9219;;;;
44734;BME280;30462;52.446;-1.930;2023-02-18T06:07:18;100417.3125;;;;
44734;BME280;30462;52.446;-1.930;2023-02-18T06:08:18;100416.8398;;;;
44734;BME280;30462;52.446;-1.930;2023-02-18T06:09:18;100417.7383;;;;
44734;BME280;30462;52.446;-1.930;2023-02-18T06:10:18;100420.2617;;;;
44734;BME280;30462;52.446;-1.930;2023-02-18T06:11:18;100427.0586;;;;
44734;BME280;30462;52.446;-1.930;2023-02-18T06:12:18;100431.5313;;;;
44734;BME280;30462;52.446;-1.930;2023-02-18T06:13:18;100427.4961;;;;